Time;durP1;ratioP1;P1;durP2;ratioP2;P2;SDS_P1;SDS_P2;PMS_P1;PMS_P2;Temp;Humidity;BMP_temperature;BMP_pressure;BME280_temperature;BME280_humidity;BME280_pressure;Samples;Min_cycle;Max_cycle;Signal;HPM_P1;HPM_P2
2021/12/22 00:00:38;;;;;;;22.95;14.65;;;-6.30;99.90;;;;;;5113746;28;20016;-61
2021/12/22 00:03:06;;;;;;;29.83;19.30;;;-6.40;99.90;;;;;;5113580;28;20672;-61
2021/12/22 00:05:33;;;;;;;24.85;15.43;;;-6.40;99.90;;;;;;5113625;28;20023;-61
2021/12/22 00:07:58;;;;;;;29.73;15.63;;;-6.40;99.90;;;;;;5113605;28;20112;-61
2021/12/22 00:10:25;;;;;;;23.58;14.98;;;-6.40;99.90;;;;;;5113382;28;20073;-61
2021/12/22 00:12:51;;;;;;;23.05;15.30;;;-6.40;99.90;;;;;;5113493;28;20100;-61
2021/12/22 00:15:17;;;;;;;26.25;13.90;;;-6.40;99.90;;;;;;5113470;28;20030;-61
2021/12/22 00:17:43;;;;;;;19.75;13.88;;;-6.40;99.90;;;;;;5113399;28;20054;-61
2021/12/22 00:20:11;;;;;;;25.65;15.65;;;-6.40;99.90;;;;;;5113215;28;20386;-62
2021/12/22 00:22:37;;;;;;;33.67;17.35;;;-6.50;99.90;;;;;;5113393;28;20054;-58
2021/12/22 00:25:03;;;;;;;41.05;18.30;;;-6.50;99.90;;;;;;5113029;28;20108;-61
2021/12/22 00:27:29;;;;;;;25.40;14.82;;;-6.50;99.90;;;;;;5113215;28;20027;-62
2021/12/22 00:29:54;;;;;;;32.45;16.35;;;-6.50;99.90;;;;;;5113219;28;20103;-61
2021/12/22 00:32:21;;;;;;;22.27;15.15;;;-6.50;99.90;;;;;;5113175;28;20106;-61
2021/12/22 00:34:51;;;;;;;26.27;15.50;;;-6.50;99.90;;;;;;5113260;28;20015;-61
2021/12/22 00:37:25;;;;;;;19.50;13.57;;;-6.40;99.90;;;;;;5113015;28;20072;-61
2021/12/22 00:39:52;;;;;;;25.95;13.23;;;-6.50;99.90;;;;;;5112967;28;20020;-62
2021/12/22 00:42:19;;;;;;;19.30;13.43;;;-6.50;99.90;;;;;;5112978;28;20386;-62
2021/12/22 00:44:49;;;;;;;24.02;13.27;;;-6.50;99.90;;;;;;5094585;28;20016;-61
2021/12/22 00:47:15;;;;;;;20.77;13.40;;;-6.60;99.90;;;;;;5112874;28;20024;-61
2021/12/22 00:49:41;;;;;;;21.17;13.70;;;-6.60;99.90;;;;;;5112811;28;20080;-61
2021/12/22 00:52:06;;;;;;;19.92;14.45;;;-6.60;99.90;;;;;;5112603;28;20446;-61
2021/12/22 00:54:32;;;;;;;22.80;12.73;;;-6.60;99.90;;;;;;5112874;28;20362;-62
2021/12/22 00:57:04;;;;;;;17.35;12.68;;;-6.60;99.90;;;;;;5112663;28;20020;-61
2021/12/22 00:59:31;;;;;;;21.15;12.57;;;-6.60;99.90;;;;;;5112712;28;20466;-62
2021/12/22 01:01:56;;;;;;;27.85;13.68;;;-6.60;99.90;;;;;;5112795;28;20144;-61
2021/12/22 01:04:22;;;;;;;17.23;12.85;;;-6.60;99.90;;;;;;5112421;28;20032;-61
2021/12/22 01:06:48;;;;;;;20.27;13.15;;;-6.70;99.90;;;;;;5111730;28;20471;-62
2021/12/22 01:09:13;;;;;;;18.95;12.07;;;-6.80;99.90;;;;;;5112496;28;20103;-61
2021/12/22 01:11:39;;;;;;;25.88;14.20;;;-6.70;99.90;;;;;;5112509;28;20020;-61
2021/12/22 01:14:05;;;;;;;20.33;12.30;;;-6.70;99.90;;;;;;5112366;28;20100;-61
2021/12/22 01:16:31;;;;;;;19.60;12.60;;;-6.70;99.90;;;;;;5094040;28;20054;-61
2021/12/22 01:19:01;;;;;;;16.38;12.45;;;-6.80;99.90;;;;;;5112449;28;20015;-61
2021/12/22 01:21:37;;;;;;;16.33;13.90;;;-6.80;99.90;;;;;;5112204;28;20030;-61
2021/12/22 01:24:15;;;;;;;19.65;13.20;;;-6.90;99.90;;;;;;5112032;28;20024;-61
2021/12/22 01:26:46;;;;;;;21.75;14.98;;;-6.90;99.90;;;;;;5112271;28;20027;-60
2021/12/22 01:29:15;;;;;;;20.60;12.93;;;-6.90;99.90;;;;;;5112198;28;20034;-61
2021/12/22 01:31:42;;;;;;;21.80;14.02;;;-6.80;99.90;;;;;;5112135;28;20054;-62
2021/12/22 01:34:09;;;;;;;23.27;14.43;;;-6.80;99.90;;;;;;5093878;28;20459;-61
2021/12/22 01:36:34;;;;;;;21.45;12.35;;;-6.80;99.90;;;;;;5112158;28;20024;-61
2021/12/22 01:39:01;;;;;;;24.80;13.43;;;-6.90;99.90;;;;;;5112005;28;20339;-61
2021/12/22 01:41:27;;;;;;;49.10;15.27;;;-6.80;99.90;;;;;;5112077;28;20027;-60
2021/12/22 01:43:54;;;;;;;22.02;13.50;;;-6.90;99.90;;;;;;5111903;28;20451;-61
2021/12/22 01:49:15;;;;;;;23.33;13.38;;;-6.90;99.90;;;;;;5112151;28;20030;-61
2021/12/22 01:51:54;;;;;;;19.35;13.02;;;-6.90;99.90;;;;;;5111954;28;20023;-61
2021/12/22 01:54:21;;;;;;;30.70;15.52;;;-6.80;99.90;;;;;;5093624;28;20028;-60
2021/12/22 01:56:51;;;;;;;18.50;14.70;;;-6.90;99.90;;;;;;5111879;28;20106;-61
2021/12/22 01:59:17;;;;;;;21.85;12.55;;;-6.80;99.90;;;;;;5111746;28;20362;-61
2021/12/22 02:01:43;;;;;;;21.10;13.82;;;-6.80;99.90;;;;;;5111958;28;20451;-60
2021/12/22 02:04:11;;;;;;;15.57;11.68;;;-6.90;99.90;;;;;;5111650;28;20028;-61
2021/12/22 02:06:41;;;;;;;20.98;13.95;;;-6.90;99.90;;;;;;5111983;28;20055;-61
2021/12/22 02:09:10;;;;;;;25.13;14.43;;;-6.90;99.90;;;;;;5111677;28;20035;-60
2021/12/22 02:11:35;;;;;;;26.08;14.32;;;-7.00;99.90;;;;;;5093675;28;20050;-60
2021/12/22 02:14:04;;;;;;;20.95;14.30;;;-7.00;99.90;;;;;;5111900;28;20044;-61
2021/12/22 02:16:35;;;;;;;21.98;14.27;;;-7.00;99.90;;;;;;5111704;28;20131;-61
2021/12/22 02:19:04;;;;;;;24.60;14.00;;;-7.00;99.90;;;;;;5115049;28;20080;-61
2021/12/22 02:21:34;;;;;;;28.88;14.50;;;-7.00;99.90;;;;;;5115533;28;20026;-61
2021/12/22 02:24:00;;;;;;;37.03;14.20;;;-7.00;99.90;;;;;;5115365;28;20379;-61
2021/12/22 02:26:51;;;;;;;23.92;14.95;;;-7.00;99.90;;;;;;5115292;28;20081;-61
2021/12/22 02:29:23;;;;;;;23.25;12.95;;;-7.00;99.90;;;;;;5115028;28;20020;-60
2021/12/22 02:34:41;;;;;;;32.80;16.33;;;-7.00;99.90;;;;;;5115826;28;20027;-61
2021/12/22 02:37:12;;;;;;;26.98;13.65;;;-7.00;99.90;;;;;;5096970;28;20020;-60
2021/12/22 02:39:44;;;;;;;23.52;14.85;;;-7.00;99.90;;;;;;5115448;28;20072;-61
2021/12/22 02:42:12;;;;;;;18.17;13.90;;;-7.00;99.90;;;;;;5115294;28;20124;-60
2021/12/22 02:44:37;;;;;;;26.67;14.77;;;-7.10;99.90;;;;;;5115133;28;20268;-60
2021/12/22 02:47:21;;;;;;;27.80;14.85;;;-7.10;99.90;;;;;;5115287;28;20098;-60
2021/12/22 02:49:47;;;;;;;23.27;12.82;;;-7.10;99.90;;;;;;5115045;28;20028;-61
2021/12/22 02:52:13;;;;;;;21.75;13.38;;;-7.10;99.90;;;;;;5115160;28;20386;-61
2021/12/22 02:54:48;;;;;;;24.55;14.05;;;-7.20;99.90;;;;;;5114998;28;20046;-61
2021/12/22 02:57:28;;;;;;;22.10;14.68;;;-7.20;99.90;;;;;;5114992;28;20110;-60
2021/12/22 03:02:58;;;;;;;32.95;15.10;;;-7.40;99.90;;;;;;5114924;28;20115;-61
2021/12/22 03:05:25;;;;;;;24.35;13.75;;;-7.30;99.90;;;;;;5114668;28;20024;-61
2021/12/22 03:07:51;;;;;;;27.73;16.50;;;-7.30;99.90;;;;;;5115043;28;20114;-61
2021/12/22 03:10:18;;;;;;;29.13;15.60;;;-7.30;99.90;;;;;;5114691;28;20625;-60
2021/12/22 03:12:51;;;;;;;24.50;12.52;;;-7.30;99.90;;;;;;5115028;28;20065;-61
2021/12/22 03:15:17;;;;;;;25.15;13.07;;;-7.30;99.90;;;;;;5096341;28;20023;-61
2021/12/22 03:17:43;;;;;;;19.95;14.07;;;-7.30;99.90;;;;;;5114624;28;20079;-60
2021/12/22 03:20:11;;;;;;;20.17;13.02;;;-7.30;99.90;;;;;;5114492;28;20440;-60
2021/12/22 03:22:38;;;;;;;29.40;12.90;;;-7.40;99.90;;;;;;5114696;28;20022;-60
2021/12/22 03:25:13;;;;;;;20.85;12.73;;;-7.40;99.90;;;;;;5114318;28;20024;-60
2021/12/22 03:27:39;;;;;;;19.45;11.80;;;-7.40;99.90;;;;;;5114762;28;20463;-60
2021/12/22 03:30:06;;;;;;;22.42;12.68;;;-7.40;99.90;;;;;;5095150;28;20015;-60
2021/12/22 03:32:32;;;;;;;25.48;12.98;;;-7.40;99.90;;;;;;5114381;28;20444;-60
2021/12/22 03:34:58;;;;;;;25.95;12.73;;;-7.40;99.90;;;;;;5114395;28;20027;-61
2021/12/22 03:37:23;;;;;;;27.45;12.52;;;-7.50;99.90;;;;;;5095807;28;20055;-60
2021/12/22 03:39:49;;;;;;;24.63;13.13;;;-7.50;99.90;;;;;;5114376;28;20062;-60
2021/12/22 03:42:15;;;;;;;26.48;12.32;;;-7.40;99.90;;;;;;5113944;28;20180;-60
2021/12/22 03:44:41;;;;;;;19.35;12.68;;;-7.40;99.90;;;;;;5114101;28;20080;-61
2021/12/22 03:47:07;;;;;;;23.83;12.55;;;-7.40;99.90;;;;;;5114061;28;20103;-60
2021/12/22 03:49:33;;;;;;;23.42;13.27;;;-7.30;99.90;;;;;;5113920;28;20511;-60
2021/12/22 03:51:59;;;;;;;20.30;13.63;;;-7.40;99.90;;;;;;5114318;28;20106;-60
2021/12/22 03:54:25;;;;;;;20.30;12.60;;;-7.40;99.90;;;;;;5113734;28;20145;-60
2021/12/22 03:56:51;;;;;;;23.20;11.63;;;-7.40;99.90;;;;;;5095570;28;20032;-61
2021/12/22 03:59:17;;;;;;;27.25;14.55;;;-7.30;99.90;;;;;;5113783;28;20020;-60
2021/12/22 04:01:43;;;;;;;22.20;11.40;;;-7.40;99.90;;;;;;5113727;28;20371;-61
2021/12/22 04:04:14;;;;;;;38.88;14.43;;;-7.30;99.90;;;;;;5113440;28;20028;-61
2021/12/22 04:06:41;;;;;;;25.30;14.32;;;-7.40;99.90;;;;;;5113915;28;20027;-60
2021/12/22 04:09:07;;;;;;;27.60;12.57;;;-7.50;99.90;;;;;;5113621;28;20486;-61
2021/12/22 04:11:33;;;;;;;26.98;11.30;;;-7.40;99.90;;;;;;5113536;28;20026;-60
2021/12/22 04:13:58;;;;;;;23.55;13.82;;;-7.50;99.90;;;;;;5095094;28;20103;-60
2021/12/22 04:16:24;;;;;;;29.08;15.07;;;-7.50;99.90;;;;;;5112879;28;20044;-60
2021/12/22 04:18:50;;;;;;;20.90;13.43;;;-7.40;99.90;;;;;;5113605;28;20028;-60
2021/12/22 04:21:16;;;;;;;26.45;13.30;;;-7.40;99.90;;;;;;5113173;28;20034;-60
2021/12/22 04:23:41;;;;;;;19.92;13.20;;;-7.40;99.90;;;;;;5113419;28;20114;-60
2021/12/22 04:26:07;;;;;;;19.70;11.93;;;-7.40;99.90;;;;;;5094989;28;20047;-60
2021/12/22 04:28:33;;;;;;;33.15;12.60;;;-7.40;99.90;;;;;;5113412;28;20028;-60
2021/12/22 04:30:58;;;;;;;25.95;12.23;;;-7.50;99.90;;;;;;5113121;28;20030;-60
2021/12/22 04:33:24;;;;;;;35.35;13.75;;;-7.50;99.90;;;;;;5113082;28;20034;-60
2021/12/22 04:35:51;;;;;;;20.42;13.45;;;-7.50;99.90;;;;;;5113318;28;20035;-60
2021/12/22 04:38:18;;;;;;;22.85;14.77;;;-7.50;99.90;;;;;;5112920;28;20032;-60
2021/12/22 04:40:44;;;;;;;23.48;14.10;;;-7.50;99.90;;;;;;5112800;28;20023;-60
2021/12/22 04:43:10;;;;;;;27.20;12.40;;;-7.50;99.90;;;;;;5112778;28;20058;-60
2021/12/22 04:45:36;;;;;;;24.23;13.88;;;-7.50;99.90;;;;;;5112926;28;20043;-60
2021/12/22 04:48:02;;;;;;;25.45;12.05;;;-7.50;99.90;;;;;;5112920;28;20474;-60
2021/12/22 04:50:28;;;;;;;17.63;12.30;;;-7.50;99.90;;;;;;5112652;28;20020;-60
2021/12/22 04:55:23;;;;;;;26.65;11.98;;;-7.40;99.90;;;;;;5112615;28;20058;-60
2021/12/22 04:57:48;;;;;;;35.33;13.77;;;-7.50;99.90;;;;;;5112821;28;20019;-60
2021/12/22 05:00:16;;;;;;;21.85;12.68;;;-7.50;99.90;;;;;;5112563;28;20459;-60
2021/12/22 05:02:41;;;;;;;30.33;12.88;;;-7.50;99.90;;;;;;5112656;28;20055;-60
2021/12/22 05:05:08;;;;;;;22.13;13.80;;;-7.50;99.90;;;;;;5112362;28;20074;-60
2021/12/22 05:07:33;;;;;;;24.00;12.15;;;-7.50;99.90;;;;;;5112459;28;20488;-60
2021/12/22 05:09:59;;;;;;;17.75;11.82;;;-7.50;99.90;;;;;;5112403;28;20058;-59
2021/12/22 05:12:25;;;;;;;28.63;13.55;;;-7.60;99.90;;;;;;5112417;28;20024;-60
2021/12/22 05:14:52;;;;;;;30.73;12.98;;;-7.60;99.90;;;;;;5112264;28;20023;-61
2021/12/22 05:17:27;;;;;;;16.38;11.73;;;-7.60;99.90;;;;;;5112146;28;20040;-60
2021/12/22 05:19:52;;;;;;;23.00;11.82;;;-7.60;99.90;;;;;;5112383;28;20027;-60
2021/12/22 05:22:18;;;;;;;22.95;13.00;;;-7.60;99.90;;;;;;5112289;28;20023;-60
2021/12/22 05:24:44;;;;;;;26.70;13.10;;;-7.50;99.90;;;;;;5112196;28;20027;-61
2021/12/22 05:27:11;;;;;;;18.77;13.60;;;-7.50;99.90;;;;;;5112148;28;20023;-60
2021/12/22 05:29:38;;;;;;;21.98;12.32;;;-7.50;99.90;;;;;;5112154;28;20046;-60
2021/12/22 05:32:05;;;;;;;25.75;13.32;;;-7.50;99.90;;;;;;5112297;28;20371;-60
2021/12/22 05:34:31;;;;;;;26.70;12.68;;;-7.40;99.90;;;;;;5112150;28;20027;-60
2021/12/22 05:36:56;;;;;;;19.23;13.80;;;-7.40;99.90;;;;;;5112215;28;20339;-61
2021/12/22 05:39:22;;;;;;;25.77;12.77;;;-7.50;99.90;;;;;;5111670;28;20614;-61
2021/12/22 05:41:48;;;;;;;21.55;13.25;;;-7.50;99.90;;;;;;5111964;28;20059;-61
2021/12/22 05:44:14;;;;;;;42.83;15.68;;;-7.50;99.90;;;;;;5111561;28;20036;-60
2021/12/22 05:46:39;;;;;;;33.28;13.13;;;-7.50;99.90;;;;;;5111862;28;20028;-61
2021/12/22 05:49:05;;;;;;;32.22;14.77;;;-7.50;99.90;;;;;;5111996;28;20031;-60
2021/12/22 05:51:33;;;;;;;21.30;13.32;;;-7.50;99.90;;;;;;5093668;28;20072;-60
2021/12/22 05:53:59;;;;;;;22.77;13.00;;;-7.50;99.90;;;;;;5115440;28;20023;-60
2021/12/22 05:56:30;;;;;;;28.70;12.50;;;-7.50;99.90;;;;;;5116198;28;20023;-60
2021/12/22 05:58:56;;;;;;;29.55;14.27;;;-7.50;99.90;;;;;;5097802;28;20054;-60
2021/12/22 06:01:22;;;;;;;20.05;13.55;;;-7.50;99.90;;;;;;5116090;28;20024;-60
2021/12/22 06:03:47;;;;;;;22.17;12.15;;;-7.50;99.90;;;;;;5115648;28;20096;-60
2021/12/22 06:06:13;;;;;;;20.33;12.65;;;-7.50;99.90;;;;;;5115731;28;20023;-61
2021/12/22 06:08:39;;;;;;;23.13;13.07;;;-7.50;99.90;;;;;;5116099;28;20016;-60
2021/12/22 06:11:05;;;;;;;25.45;13.23;;;-7.50;99.90;;;;;;5115733;28;20038;-60
2021/12/22 06:13:30;;;;;;;23.25;13.85;;;-7.50;99.90;;;;;;5115681;28;20030;-60
2021/12/22 06:15:56;;;;;;;42.83;14.95;;;-7.50;99.90;;;;;;5115546;28;20015;-60
2021/12/22 06:18:22;;;;;;;40.65;13.73;;;-7.50;99.90;;;;;;5115507;28;20031;-61
2021/12/22 06:20:47;;;;;;;24.98;14.32;;;-7.50;99.90;;;;;;5115613;28;20081;-60
2021/12/22 06:23:13;;;;;;;20.73;14.23;;;-7.60;99.90;;;;;;5115303;28;20110;-59
2021/12/22 06:25:39;;;;;;;24.17;12.70;;;-7.60;99.90;;;;;;5115531;28;20028;-60
2021/12/22 06:28:06;;;;;;;23.65;14.55;;;-7.60;99.90;;;;;;5115149;28;20051;-60
2021/12/22 06:30:32;;;;;;;25.38;15.23;;;-7.60;99.90;;;;;;5115143;28;20057;-60
2021/12/22 06:32:57;;;;;;;27.23;14.70;;;-7.60;99.90;;;;;;5113916;28;20034;-60
2021/12/22 06:35:23;;;;;;;28.50;15.52;;;-7.60;99.90;;;;;;5095134;28;20024;-60
2021/12/22 06:37:50;;;;;;;26.95;16.00;;;-7.50;99.90;;;;;;5113720;28;20046;-60
2021/12/22 06:40:16;;;;;;;26.35;13.80;;;-7.60;99.90;;;;;;5113932;28;20084;-60
2021/12/22 06:42:42;;;;;;;26.73;13.65;;;-7.60;99.90;;;;;;5114124;28;20474;-60
2021/12/22 06:45:10;;;;;;;26.63;15.25;;;-7.60;99.90;;;;;;5113869;28;20174;-60
2021/12/22 06:47:36;;;;;;;30.30;15.40;;;-7.60;99.90;;;;;;5114241;28;20019;-60
2021/12/22 06:50:04;;;;;;;28.90;16.00;;;-7.60;99.90;;;;;;5113890;28;20024;-60
2021/12/22 06:52:30;;;;;;;27.02;13.75;;;-7.60;99.90;;;;;;5112792;28;20020;-60
2021/12/22 06:54:55;;;;;;;25.25;14.00;;;-7.60;99.90;;;;;;5113920;28;20410;-60
2021/12/22 06:57:22;;;;;;;36.30;14.93;;;-7.60;99.90;;;;;;5113563;28;20047;-60
2021/12/22 06:59:48;;;;;;;42.28;15.40;;;-7.60;99.90;;;;;;5095362;28;20024;-60
2021/12/22 07:02:14;;;;;;;24.30;15.25;;;-7.60;99.90;;;;;;5113703;28;20227;-60
2021/12/22 07:04:40;;;;;;;28.88;16.02;;;-7.60;99.90;;;;;;5112271;28;20020;-60
2021/12/22 07:07:05;;;;;;;32.78;18.30;;;-7.60;99.90;;;;;;5113499;28;20028;-60
2021/12/22 07:09:31;;;;;;;39.70;19.15;;;-7.60;99.90;;;;;;5113542;28;20023;-60
2021/12/22 07:11:57;;;;;;;37.55;20.58;;;-7.50;99.90;;;;;;5113612;28;20474;-60
2021/12/22 07:14:23;;;;;;;43.03;20.30;;;-7.50;99.90;;;;;;5113308;28;20080;-59
2021/12/22 07:16:49;;;;;;;35.00;20.05;;;-7.40;99.90;;;;;;5113407;28;20053;-60
2021/12/22 07:19:14;;;;;;;38.08;20.50;;;-7.40;99.90;;;;;;5113187;28;20031;-60
2021/12/22 07:21:40;;;;;;;39.55;21.23;;;-7.40;99.90;;;;;;5095221;28;20027;-60
2021/12/22 07:24:06;;;;;;;34.53;20.10;;;-7.40;99.90;;;;;;5113097;28;20043;-60
2021/12/22 07:26:32;;;;;;;41.13;20.58;;;-7.30;99.90;;;;;;5113428;28;20030;-60
2021/12/22 07:28:58;;;;;;;43.03;18.95;;;-7.30;99.90;;;;;;5113143;28;20111;-60
2021/12/22 07:31:24;;;;;;;37.72;19.65;;;-7.30;99.90;;;;;;5113149;28;20102;-60
2021/12/22 07:34:27;;;;;;;37.90;19.60;;;-7.20;99.90;;;;;;5112957;28;20035;-60
2021/12/22 07:37:03;;;;;;;37.20;19.93;;;-7.20;99.90;;;;;;5113226;28;20102;-60
2021/12/22 07:39:28;;;;;;;39.20;20.13;;;-7.10;99.90;;;;;;5112718;28;20261;-59
2021/12/22 07:41:54;;;;;;;42.45;19.10;;;-7.10;99.90;;;;;;5113048;28;20386;-60
2021/12/22 07:44:20;;;;;;;50.75;20.85;;;-7.10;99.90;;;;;;5112854;28;20040;-60
2021/12/22 07:46:46;;;;;;;45.55;18.98;;;-7.00;99.90;;;;;;5112791;28;20037;-61
2021/12/22 07:49:11;;;;;;;35.72;19.00;;;-7.00;99.90;;;;;;5112665;28;20019;-61
2021/12/22 07:51:37;;;;;;;49.00;21.73;;;-6.90;99.90;;;;;;5112758;28;20027;-61
2021/12/22 07:54:04;;;;;;;33.58;20.02;;;-6.90;99.90;;;;;;5112611;28;20424;-61
2021/12/22 07:56:29;;;;;;;53.55;18.65;;;-6.80;99.90;;;;;;5112550;28;20034;-60
2021/12/22 07:58:55;;;;;;;38.45;19.27;;;-6.80;99.90;;;;;;5112732;28;20106;-61
2021/12/22 08:01:21;;;;;;;36.78;18.17;;;-6.70;99.90;;;;;;5112343;28;20024;-61
2021/12/22 08:03:47;;;;;;;37.63;18.58;;;-6.70;99.90;;;;;;5112458;28;20052;-60
2021/12/22 08:06:14;;;;;;;31.20;19.13;;;-6.60;99.90;;;;;;5112315;28;20055;-60
2021/12/22 08:08:39;;;;;;;34.00;20.92;;;-6.40;99.90;;;;;;5112381;28;20475;-61
2021/12/22 08:11:05;;;;;;;33.25;19.65;;;-6.40;99.90;;;;;;5112491;28;20119;-61
2021/12/22 08:13:32;;;;;;;35.83;19.92;;;-6.40;99.90;;;;;;5112395;28;20027;-60
2021/12/22 08:15:58;;;;;;;37.83;21.92;;;-6.30;99.90;;;;;;5111734;28;20031;-61
2021/12/22 08:18:24;;;;;;;27.80;18.92;;;-6.20;99.90;;;;;;5112386;28;20041;-61
2021/12/22 08:20:50;;;;;;;36.65;18.10;;;-6.10;99.90;;;;;;5112160;28;20131;-61
2021/12/22 08:23:18;;;;;;;42.22;19.52;;;-6.00;99.90;;;;;;5111978;28;20114;-60
2021/12/22 08:25:44;;;;;;;44.42;22.10;;;-5.90;99.90;;;;;;5111961;28;20020;-61
2021/12/22 08:28:10;;;;;;;38.42;22.33;;;-5.60;99.90;;;;;;5111992;28;20065;-60
2021/12/22 08:30:37;;;;;;;40.85;24.02;;;-5.30;99.90;;;;;;5111951;28;20058;-61
2021/12/22 08:33:09;;;;;;;36.85;22.80;;;-5.10;99.90;;;;;;5112213;28;20059;-61
2021/12/22 08:38:50;;;;;;;34.47;20.80;;;-4.80;99.90;;;;;;5112111;28;20015;-61
2021/12/22 08:41:05;;;;;;;27.38;18.23;;;-4.20;99.90;;;;;;5112113;28;20060;-61
2021/12/22 08:43:31;;;;;;;20.88;15.98;;;-4.00;99.90;;;;;;5111609;28;20019;-61
2021/12/22 08:45:56;;;;;;;22.45;17.00;;;-3.90;99.90;;;;;;5093438;28;20055;-60
2021/12/22 08:48:22;;;;;;;31.08;20.17;;;-3.80;99.90;;;;;;5111576;28;20552;-61
2021/12/22 08:50:48;;;;;;;27.35;17.08;;;-3.60;99.90;;;;;;5111731;28;20054;-61
2021/12/22 08:53:13;;;;;;;26.55;18.02;;;-3.60;99.90;;;;;;5111313;28;20063;-61
2021/12/22 08:55:39;;;;;;;28.48;17.65;;;-3.40;99.90;;;;;;5111620;28;20167;-60
2021/12/22 08:58:04;;;;;;;28.50;20.88;;;-3.40;99.90;;;;;;5111439;28;20024;-60
2021/12/22 09:00:33;;;;;;;29.08;18.80;;;-3.30;99.90;;;;;;5111528;28;20024;-61
2021/12/22 09:02:59;;;;;;;23.38;16.40;;;-3.20;99.90;;;;;;5111254;28;20080;-60
2021/12/22 09:05:24;;;;;;;31.05;19.52;;;-3.10;99.90;;;;;;5111201;28;20056;-61
2021/12/22 09:07:51;;;;;;;25.77;15.00;;;-3.10;99.90;;;;;;5111150;28;20482;-61
2021/12/22 09:10:16;;;;;;;27.02;15.77;;;-3.00;99.90;;;;;;5111064;28;20016;-61
2021/12/22 09:12:42;;;;;;;23.58;16.08;;;-2.90;99.90;;;;;;5111454;28;20179;-61
2021/12/22 09:15:08;;;;;;;24.92;15.85;;;-2.80;99.90;;;;;;5111088;28;20046;-61
2021/12/22 09:17:34;;;;;;;22.83;15.70;;;-2.80;99.90;;;;;;5110963;28;20059;-61
2021/12/22 09:20:00;;;;;;;20.58;15.25;;;-2.70;99.90;;;;;;5111117;28;20024;-61
2021/12/22 09:22:26;;;;;;;25.33;16.95;;;-2.70;99.90;;;;;;5110800;28;20023;-60
2021/12/22 09:24:52;;;;;;;26.85;15.82;;;-2.60;99.90;;;;;;5111148;28;20023;-61
2021/12/22 09:27:18;;;;;;;19.80;14.40;;;-2.60;99.90;;;;;;5110106;28;20019;-61
2021/12/22 09:29:43;;;;;;;18.42;12.98;;;-2.40;99.90;;;;;;5111058;28;20458;-61
2021/12/22 09:32:14;;;;;;;14.40;11.68;;;-1.70;99.90;;;;;;5111043;28;20046;-61
2021/12/22 09:34:40;;;;;;;18.55;10.60;;;-0.10;99.90;;;;;;5110905;28;20024;-61
2021/12/22 09:37:06;;;;;;;17.55;10.90;;;1.50;99.90;;;;;;5110840;28;20088;-59
2021/12/22 09:39:32;;;;;;;62.45;27.73;;;2.60;98.90;;;;;;5110834;28;20044;-60
2021/12/22 09:41:57;;;;;;;18.83;11.65;;;3.70;95.90;;;;;;5092713;28;20059;-61
2021/12/22 09:44:30;;;;;;;19.13;11.73;;;3.90;92.70;;;;;;5110565;28;20077;-61
2021/12/22 09:46:56;;;;;;;10.73;9.10;;;4.60;90.50;;;;;;5110963;28;20617;-61
2021/12/22 09:49:58;;;;;;;13.07;10.00;;;5.90;84.30;;;;;;5092374;28;20356;-61
2021/12/22 09:52:23;;;;;;;11.18;9.00;;;5.90;79.90;;;;;;5110393;28;20027;-61
2021/12/22 09:54:59;;;;;;;16.23;9.35;;;5.90;77.80;;;;;;5110866;28;20069;-61
2021/12/22 09:57:25;;;;;;;12.02;8.85;;;6.10;75.10;;;;;;5110465;28;20036;-60
2021/12/22 09:59:54;;;;;;;13.20;8.48;;;6.40;71.80;;;;;;5110686;28;20035;-60
2021/12/22 10:02:22;;;;;;;12.93;9.90;;;6.50;70.60;;;;;;5110509;28;20028;-60
2021/12/22 10:04:48;;;;;;;15.70;10.23;;;6.80;68.60;;;;;;5092519;28;20042;-60
2021/12/22 10:07:20;;;;;;;12.00;10.52;;;6.30;69.30;;;;;;5110744;28;20024;-60
2021/12/22 10:09:47;;;;;;;13.98;10.65;;;6.10;70.10;;;;;;5110580;28;20080;-59
2021/12/22 10:12:15;;;;;;;16.45;12.63;;;6.50;69.90;;;;;;5110497;28;20363;-61
2021/12/22 10:14:54;;;;;;;18.23;11.98;;;6.40;68.10;;;;;;5110681;28;20382;-60
2021/12/22 10:17:47;;;;;;;12.23;8.90;;;6.80;68.50;;;;;;5110569;28;20075;-60
2021/12/22 10:20:20;;;;;;;10.75;9.65;;;7.20;66.70;;;;;;5108097;28;20040;-61
2021/12/22 10:22:48;;;;;;;14.60;10.10;;;7.30;64.80;;;;;;5110351;28;20381;-60
2021/12/22 10:25:21;;;;;;;13.80;9.18;;;7.20;65.50;;;;;;5110250;28;20031;-61
2021/12/22 10:27:58;;;;;;;14.43;10.02;;;7.60;64.10;;;;;;5110621;28;20417;-60
2021/12/22 10:30:36;;;;;;;13.80;10.88;;;7.10;64.90;;;;;;5092070;28;20066;-61
2021/12/22 10:33:08;;;;;;;20.00;11.50;;;6.50;65.60;;;;;;5110557;28;20022;-60
2021/12/22 10:35:35;;;;;;;20.38;13.43;;;7.90;64.00;;;;;;5110342;28;20406;-60
2021/12/22 10:38:02;;;;;;;15.90;11.85;;;7.30;64.10;;;;;;5092266;28;20540;-61
2021/12/22 10:40:43;;;;;;;17.92;9.85;;;7.00;64.20;;;;;;5113982;28;20537;-61
2021/12/22 10:43:25;;;;;;;20.60;11.90;;;7.60;63.00;;;;;;5114111;28;20028;-61
2021/12/22 10:45:55;;;;;;;58.53;35.95;;;8.40;62.10;;;;;;5095585;28;20059;-61
2021/12/22 10:51:14;;;;;;;87.57;56.22;;;8.00;60.80;;;;;;5113985;28;20064;-61
2021/12/22 10:53:45;;;;;;;23.30;11.27;;;7.70;62.30;;;;;;5114258;28;20117;-61
2021/12/22 10:56:22;;;;;;;13.55;9.35;;;8.10;62.20;;;;;;5113802;28;20359;-59
2021/12/22 10:58:59;;;;;;;12.32;8.18;;;8.10;60.80;;;;;;5113773;28;20016;-58
2021/12/22 11:01:25;;;;;;;11.05;7.97;;;8.40;59.60;;;;;;5113637;28;20027;-61
2021/12/22 11:03:55;;;;;;;11.40;9.02;;;8.80;59.60;;;;;;5113806;28;20031;-61
2021/12/22 11:06:25;;;;;;;9.23;7.40;;;9.20;58.10;;;;;;5095211;28;20024;-60
2021/12/22 11:08:59;;;;;;;14.68;8.30;;;9.00;57.50;;;;;;5113687;28;20047;-61
2021/12/22 11:11:33;;;;;;;11.88;8.40;;;8.90;57.10;;;;;;5095317;28;20547;-61
2021/12/22 11:14:13;;;;;;;10.48;8.23;;;8.40;57.80;;;;;;5113542;28;20030;-60
2021/12/22 11:16:54;;;;;;;23.45;8.70;;;7.70;59.00;;;;;;5113210;28;20039;-59
2021/12/22 11:19:19;;;;;;;17.92;9.07;;;7.90;59.40;;;;;;5113258;28;20036;-61
2021/12/22 11:21:59;;;;;;;12.02;8.38;;;8.10;59.60;;;;;;5095240;28;20024;-61
2021/12/22 11:24:27;;;;;;;10.40;8.02;;;8.90;58.60;;;;;;5113278;28;20089;-60
2021/12/22 11:26:53;;;;;;;11.60;7.85;;;9.00;57.20;;;;;;5113205;28;20012;-61
2021/12/22 11:29:19;;;;;;;13.85;8.82;;;9.20;57.10;;;;;;5113325;28;20030;-61
2021/12/22 11:31:50;;;;;;;11.15;8.93;;;9.70;55.40;;;;;;5094727;28;20020;-60
2021/12/22 11:34:18;;;;;;;14.70;8.48;;;9.20;56.40;;;;;;5094869;28;20030;-60
2021/12/22 11:36:49;;;;;;;12.93;8.63;;;8.80;57.80;;;;;;5113577;28;20114;-60
2021/12/22 11:39:15;;;;;;;10.60;8.45;;;9.20;56.70;;;;;;5112851;28;20038;-60
2021/12/22 11:41:54;;;;;;;14.70;9.65;;;10.20;55.00;;;;;;5113070;28;20504;-60
2021/12/22 11:44:22;;;;;;;14.98;8.68;;;10.20;54.50;;;;;;5094500;28;20035;-61
2021/12/22 11:46:48;;;;;;;15.32;8.93;;;10.10;53.10;;;;;;5102419;28;20012;-60
2021/12/22 11:49:18;;;;;;;14.32;9.35;;;9.10;54.30;;;;;;5092578;28;20068;-60
2021/12/22 11:51:44;;;;;;;16.10;9.15;;;8.70;54.50;;;;;;5092009;28;20020;-61
2021/12/22 11:54:10;;;;;;;15.43;7.90;;;9.20;55.30;;;;;;5091555;28;20028;-59
2021/12/22 11:56:50;;;;;;;20.25;9.07;;;9.20;54.20;;;;;;5091529;28;20099;-59
2021/12/22 11:59:39;;;;;;;17.92;8.93;;;8.80;55.00;;;;;;5091391;28;20020;-60
2021/12/22 12:02:22;;;;;;;12.50;7.75;;;9.10;54.90;;;;;;5092003;28;20028;-60
2021/12/22 12:04:51;;;;;;;15.73;8.10;;;8.80;54.50;;;;;;5092139;28;20432;-60
2021/12/22 12:07:41;;;;;;;13.32;8.48;;;8.10;56.90;;;;;;5091984;28;20024;-60
2021/12/22 12:10:40;;;;;;;12.60;8.45;;;7.10;59.20;;;;;;5091842;28;20029;-60
2021/12/22 12:13:21;;;;;;;16.23;9.25;;;6.20;61.40;;;;;;5092028;28;20141;-60
2021/12/22 12:22:23;;;;;;;17.15;9.18;;;4.90;68.40;;;;;;5091885;28;20395;-60
2021/12/22 12:25:13;;;;;;;12.15;8.57;;;4.70;69.20;;;;;;5091908;28;20115;-60
2021/12/22 12:27:52;;;;;;;10.65;8.95;;;5.20;68.10;;;;;;5091928;28;20031;-60
2021/12/22 12:30:26;;;;;;;19.30;8.98;;;5.70;66.50;;;;;;5091657;28;20024;-60
2021/12/22 12:32:53;;;;;;;13.98;8.65;;;5.70;66.50;;;;;;5091934;28;20051;-59
2021/12/22 12:35:28;;;;;;;14.30;8.20;;;5.70;66.60;;;;;;5091388;28;20020;-60
2021/12/22 12:38:15;;;;;;;14.77;8.80;;;5.60;67.80;;;;;;5091907;28;20038;-60
2021/12/22 12:41:16;;;;;;;10.90;8.93;;;5.20;68.20;;;;;;5091471;28;20020;-59
2021/12/22 12:43:42;;;;;;;11.40;8.68;;;5.10;69.50;;;;;;5090830;28;20039;-59
2021/12/22 12:46:28;;;;;;;11.60;9.23;;;4.90;69.90;;;;;;5091788;28;20019;-60
2021/12/22 12:49:03;;;;;;;16.55;9.77;;;4.80;71.40;;;;;;5091440;28;20103;-60
2021/12/22 12:51:40;;;;;;;13.63;9.30;;;4.60;72.50;;;;;;5091243;28;20027;-60
2021/12/22 12:54:17;;;;;;;17.23;9.73;;;4.10;72.80;;;;;;5091122;28;20424;-60
2021/12/22 12:57:05;;;;;;;17.05;11.25;;;4.30;73.40;;;;;;5090875;28;20105;-60
2021/12/22 12:59:40;;;;;;;15.32;9.68;;;4.00;74.90;;;;;;5090856;28;20032;-60
2021/12/22 13:02:21;;;;;;;18.15;10.52;;;4.80;73.70;;;;;;5090946;28;20028;-60